createdAt,value
2017-11-22T00:02:00.881Z,78.64
2017-11-22T00:04:29.196Z,78.38
2017-11-22T00:06:57.502Z,78.01
2017-11-22T00:09:25.802Z,77.68
2017-11-22T00:11:54.111Z,77.84
2017-11-22T00:14:22.391Z,77.76
2017-11-22T00:16:50.708Z,77.71
2017-11-22T00:19:19.016Z,77.83
2017-11-22T00:21:47.611Z,77.92
2017-11-22T00:24:15.973Z,78.02
2017-11-22T00:26:44.260Z,78.06
2017-11-22T00:29:12.568Z,78.06
2017-11-22T00:31:40.857Z,77.99
2017-11-22T00:34:09.178Z,77.87
2017-11-22T00:36:37.457Z,77.56
2017-11-22T00:39:05.780Z,77.56
2017-11-22T00:41:34.091Z,77.60
2017-11-22T00:44:02.394Z,77.54
2017-11-22T00:46:30.773Z,77.39
2017-11-22T00:48:59.048Z,77.24
2017-11-22T00:51:27.405Z,77.15
2017-11-22T00:53:55.676Z,77.31
2017-11-22T00:56:23.990Z,77.07
2017-11-22T00:58:52.260Z,76.73
2017-11-22T01:01:20.560Z,76.79
2017-11-22T01:03:48.842Z,76.65
2017-11-22T01:06:17.152Z,76.55
2017-11-22T01:08:45.438Z,76.62
2017-11-22T01:11:13.777Z,76.92
2017-11-22T01:13:42.101Z,76.58
2017-11-22T01:16:10.362Z,76.28
2017-11-22T01:18:38.623Z,76.34
2017-11-22T01:21:06.930Z,76.58
2017-11-22T01:23:35.281Z,76.36
2017-11-22T01:26:03.601Z,76.05
2017-11-22T01:28:31.867Z,76.19
2017-11-22T01:31:00.177Z,76.14
2017-11-22T01:33:28.457Z,75.94
2017-11-22T01:35:56.775Z,75.86
2017-11-22T01:38:25.029Z,76.15
2017-11-22T01:40:53.372Z,76.08
2017-11-22T01:43:21.645Z,76.03
2017-11-22T01:45:49.977Z,76.18
2017-11-22T01:48:18.241Z,76.29
2017-11-22T01:50:46.576Z,76.27
2017-11-22T01:53:14.848Z,76.41
2017-11-22T01:55:43.171Z,76.38
2017-11-22T01:58:11.424Z,76.17
2017-11-22T02:00:51.352Z,76.22
2017-11-22T02:03:19.617Z,75.93
2017-11-22T02:05:47.904Z,75.98
2017-11-22T02:08:16.369Z,75.70
2017-11-22T02:10:44.648Z,75.64
2017-11-22T02:13:12.957Z,75.80
2017-11-22T02:15:41.242Z,75.87
2017-11-22T02:18:09.556Z,75.71
2017-11-22T02:20:37.810Z,75.37
2017-11-22T02:23:06.075Z,75.48
2017-11-22T02:25:34.391Z,75.30
2017-11-22T02:28:02.646Z,75.13
2017-11-22T02:30:30.960Z,75.25
2017-11-22T02:32:59.217Z,75.49
2017-11-22T02:35:27.502Z,75.36
2017-11-22T02:37:55.777Z,75.44
2017-11-22T02:40:24.098Z,75.13
2017-11-22T02:42:52.368Z,74.96
2017-11-22T02:45:20.640Z,74.92
2017-11-22T02:47:48.920Z,74.80
2017-11-22T02:50:17.198Z,74.86
2017-11-22T02:52:45.477Z,74.97
2017-11-22T02:55:14.064Z,74.83
2017-11-22T02:57:42.343Z,74.93
2017-11-22T03:00:10.619Z,74.56
2017-11-22T03:02:38.910Z,74.71
2017-11-22T03:05:07.206Z,74.63
2017-11-22T03:07:35.482Z,74.73
2017-11-22T03:10:03.769Z,74.82
2017-11-22T03:12:32.042Z,74.96
2017-11-22T03:15:00.337Z,75.11
2017-11-22T03:17:28.606Z,75.07
2017-11-22T03:19:57.518Z,75.13
2017-11-22T03:22:25.761Z,75.54
2017-11-22T03:24:54.056Z,75.62
2017-11-22T03:27:22.364Z,75.38
2017-11-22T03:29:50.729Z,75.26
2017-11-22T03:32:18.969Z,75.28
2017-11-22T03:34:47.266Z,75.38
2017-11-22T03:37:15.563Z,75.56
2017-11-22T03:39:43.812Z,75.61
2017-11-22T03:42:12.136Z,75.40
2017-11-22T03:44:40.629Z,75.32
2017-11-22T03:47:08.884Z,75.29
2017-11-22T03:49:42.756Z,75.80
2017-11-22T03:52:16.569Z,75.68
2017-11-22T03:54:44.841Z,75.85
2017-11-22T03:57:13.457Z,75.89
2017-11-22T03:59:41.733Z,75.74
2017-11-22T04:02:10.011Z,75.71
2017-11-22T04:04:38.309Z,75.86
2017-11-22T04:07:06.784Z,75.55
2017-11-22T04:09:35.113Z,75.62
2017-11-22T04:12:03.397Z,75.39
2017-11-22T04:14:31.705Z,75.34
2017-11-22T04:16:59.981Z,75.28
2017-11-22T04:22:21.416Z,74.87
2017-11-22T04:24:49.705Z,74.78
2017-11-22T04:27:17.980Z,74.87
2017-11-22T04:29:46.269Z,74.95
2017-11-22T04:32:14.836Z,74.89
2017-11-22T04:34:43.128Z,74.92
2017-11-22T04:37:11.451Z,74.87
2017-11-22T04:39:39.732Z,75.10
2017-11-22T04:42:08.071Z,75.14
2017-11-22T04:44:36.323Z,74.87
2017-11-22T04:47:04.968Z,75.23
2017-11-22T04:49:36.112Z,75.17
2017-11-22T04:52:04.406Z,75.45
2017-11-22T04:54:32.693Z,75.67
2017-11-22T04:57:00.977Z,75.78
2017-11-22T04:59:29.249Z,76.02
2017-11-22T05:01:57.536Z,76.00
2017-11-22T05:04:25.908Z,75.77
2017-11-22T05:06:54.192Z,75.73
2017-11-22T05:09:22.459Z,75.84
2017-11-22T05:11:50.742Z,75.78
2017-11-22T05:14:19.115Z,76.15
2017-11-22T05:16:47.386Z,76.30
2017-11-22T05:19:15.657Z,76.30
2017-11-22T05:21:43.945Z,76.50
2017-11-22T05:24:12.229Z,76.46
2017-11-22T05:26:40.574Z,76.37
2017-11-22T05:29:08.835Z,76.34
2017-11-22T05:31:37.437Z,76.07
2017-11-22T05:34:05.746Z,75.93
2017-11-22T05:36:34.003Z,76.08
2017-11-22T05:39:02.353Z,76.28
2017-11-22T05:41:30.674Z,76.25
2017-11-22T05:43:58.953Z,76.07
2017-11-22T05:46:27.228Z,76.24
2017-11-22T05:48:55.523Z,76.39
2017-11-22T05:51:23.832Z,76.34
2017-11-22T05:53:52.165Z,76.25
2017-11-22T05:56:20.489Z,76.05
2017-11-22T05:58:48.784Z,76.17
2017-11-22T06:01:17.076Z,76.29
2017-11-22T06:03:45.344Z,76.45
2017-11-22T06:06:13.710Z,76.47
2017-11-22T06:08:41.970Z,76.69
2017-11-22T06:11:10.305Z,76.69
2017-11-22T06:13:38.576Z,76.63
2017-11-22T06:16:06.876Z,76.86
2017-11-22T06:18:35.148Z,76.75
2017-11-22T06:21:03.476Z,77.02
2017-11-22T06:23:31.744Z,77.29
2017-11-22T06:26:02.726Z,77.67
2017-11-22T06:28:31.023Z,77.85
2017-11-22T06:30:59.290Z,77.85
2017-11-22T06:33:27.589Z,77.38
2017-11-22T06:35:56.110Z,77.35
2017-11-22T06:38:24.582Z,77.39
2017-11-22T06:40:52.855Z,76.93
2017-11-22T06:43:21.169Z,76.70
2017-11-22T06:45:49.514Z,76.40
2017-11-22T06:48:17.792Z,76.37
2017-11-22T06:50:46.102Z,76.61
2017-11-22T06:53:14.444Z,76.79
2017-11-22T06:55:43.659Z,76.86
2017-11-22T06:58:11.969Z,77.09
2017-11-22T07:00:40.290Z,77.43
2017-11-22T07:03:10.343Z,77.00
2017-11-22T07:05:38.661Z,77.00
2017-11-22T07:08:06.997Z,76.74
2017-11-22T07:10:35.296Z,76.65
2017-11-22T07:13:04.667Z,76.48
2017-11-22T07:15:32.932Z,76.13
2017-11-22T07:18:01.241Z,76.22
2017-11-22T07:20:29.540Z,76.55
2017-11-22T07:22:57.820Z,76.64
2017-11-22T07:25:26.087Z,76.43
2017-11-22T07:27:54.437Z,76.26
2017-11-22T07:30:22.730Z,75.87
2017-11-22T07:32:51.004Z,76.37
2017-11-22T07:38:20.369Z,75.93
2017-11-22T07:40:48.715Z,76.19
2017-11-22T07:43:16.971Z,76.07
2017-11-22T07:45:45.542Z,75.69
2017-11-22T07:48:15.740Z,75.20
2017-11-22T07:50:45.771Z,74.90
2017-11-22T07:53:14.049Z,74.98
2017-11-22T07:55:42.338Z,74.51
2017-11-22T07:58:10.605Z,74.53
2017-11-22T08:00:38.904Z,74.14
2017-11-22T08:03:09.142Z,74.19
2017-11-22T08:05:37.408Z,74.36
2017-11-22T08:08:05.704Z,74.51
2017-11-22T08:10:34.897Z,74.55
2017-11-22T08:13:03.248Z,74.30
2017-11-22T08:15:31.506Z,74.05
2017-11-22T08:17:59.854Z,74.02
2017-11-22T08:20:28.175Z,73.59
2017-11-22T08:23:00.353Z,73.33
2017-11-22T08:25:28.680Z,73.26
2017-11-22T08:27:56.949Z,73.05
2017-11-22T08:30:25.276Z,73.06
2017-11-22T08:32:53.542Z,72.73
2017-11-22T08:35:21.851Z,72.50
2017-11-22T08:37:50.190Z,72.44
2017-11-22T08:40:19.430Z,71.89
2017-11-22T08:42:53.171Z,71.90
2017-11-22T08:45:21.467Z,72.27
2017-11-22T08:47:49.840Z,72.11
2017-11-22T08:50:18.092Z,71.98
2017-11-22T08:52:46.393Z,71.90
2017-11-22T08:58:16.820Z,71.64
2017-11-22T09:00:45.090Z,71.88
2017-11-22T09:03:15.283Z,71.66
2017-11-22T09:05:48.526Z,71.66
2017-11-22T09:08:16.798Z,71.61
2017-11-22T09:10:45.056Z,71.11
2017-11-22T09:13:30.859Z,71.16
2017-11-22T09:15:59.123Z,70.73
2017-11-22T09:18:33.073Z,70.58
2017-11-22T09:21:01.356Z,70.41
2017-11-22T09:23:29.641Z,70.05
2017-11-22T09:25:57.938Z,70.14
2017-11-22T09:28:26.231Z,69.99
2017-11-22T09:30:54.537Z,69.74
2017-11-22T09:33:25.628Z,70.00
2017-11-22T09:35:53.949Z,69.60
2017-11-22T09:38:22.218Z,69.63
2017-11-22T09:40:50.525Z,69.42
2017-11-22T09:43:18.820Z,69.37
2017-11-22T09:45:47.829Z,69.28
2017-11-22T09:48:16.113Z,69.23
2017-11-22T09:50:44.454Z,69.12
2017-11-22T09:53:12.732Z,69.37
2017-11-22T09:55:41.070Z,69.26
2017-11-22T09:58:09.439Z,69.47
2017-11-22T10:00:37.714Z,69.76
2017-11-22T10:03:06.008Z,69.81
2017-11-22T10:05:35.257Z,69.67
2017-11-22T10:08:04.236Z,69.51
2017-11-22T10:10:32.542Z,68.96
2017-11-22T10:13:00.845Z,68.82
2017-11-22T10:15:29.201Z,68.53
2017-11-22T10:18:03.128Z,68.69
2017-11-22T10:20:31.400Z,68.20
2017-11-22T10:22:59.713Z,67.98
2017-11-22T10:25:28.023Z,67.75
2017-11-22T10:28:01.887Z,67.71
2017-11-22T10:30:30.275Z,67.63
2017-11-22T10:35:59.753Z,67.69
2017-11-22T10:38:28.052Z,67.83
2017-11-22T10:40:56.340Z,67.37
2017-11-22T10:43:24.649Z,67.33
2017-11-22T10:45:52.946Z,67.29
2017-11-22T10:48:21.228Z,66.92
2017-11-22T10:50:49.521Z,66.78
2017-11-22T10:53:17.797Z,66.41
2017-11-22T10:55:46.088Z,66.24
2017-11-22T10:58:14.415Z,65.61
2017-11-22T11:00:42.730Z,65.55
2017-11-22T11:03:11.017Z,65.50
2017-11-22T11:05:39.383Z,64.74
2017-11-22T11:08:07.671Z,64.93
2017-11-22T11:10:35.948Z,65.13
2017-11-22T11:13:04.801Z,64.61
2017-11-22T11:15:33.116Z,64.51
2017-11-22T11:18:01.419Z,64.30
2017-11-22T11:20:29.723Z,64.08
2017-11-22T11:22:58.676Z,63.99
2017-11-22T11:25:32.908Z,63.61
2017-11-22T11:28:01.166Z,63.70
2017-11-22T11:30:29.476Z,63.94
2017-11-22T11:32:58.282Z,63.56
2017-11-22T11:35:38.188Z,63.60
2017-11-22T11:38:06.455Z,63.61
2017-11-22T11:40:35.549Z,62.96
2017-11-22T11:43:04.531Z,62.81
2017-11-22T11:45:32.899Z,62.21
2017-11-22T11:48:01.275Z,61.75
2017-11-22T11:50:32.400Z,61.48
2017-11-22T11:53:00.775Z,60.86
2017-11-22T11:55:29.125Z,60.68
2017-11-22T11:57:57.448Z,60.50
2017-11-22T12:00:25.732Z,60.35
2017-11-22T12:02:54.051Z,59.81
2017-11-22T12:05:22.899Z,59.44
2017-11-22T12:07:51.151Z,59.67
2017-11-22T12:10:19.486Z,58.73
2017-11-22T12:12:47.736Z,59.10
2017-11-22T12:15:16.155Z,59.02
2017-11-22T12:17:45.298Z,57.91
2017-11-22T12:20:13.616Z,58.02
2017-11-22T12:22:44.547Z,57.65
2017-11-22T12:25:12.921Z,57.34
2017-11-22T12:27:41.189Z,57.27
2017-11-22T12:30:10.272Z,57.05
2017-11-22T12:32:38.572Z,57.22
2017-11-22T12:35:06.866Z,57.04
2017-11-22T12:37:35.192Z,56.43
2017-11-22T12:40:03.530Z,56.70
2017-11-22T12:42:32.629Z,56.16
2017-11-22T12:45:00.925Z,55.62
2017-11-22T12:47:29.338Z,55.57
2017-11-22T12:49:57.645Z,55.31
2017-11-22T12:52:25.964Z,54.38
2017-11-22T12:54:54.325Z,54.91
2017-11-22T12:57:22.644Z,54.47
2017-11-22T12:59:50.930Z,54.40
2017-11-22T13:02:19.201Z,54.35
2017-11-22T13:04:47.633Z,54.49
2017-11-22T13:07:15.946Z,54.48
2017-11-22T13:09:44.276Z,53.44
2017-11-22T13:12:12.632Z,53.06
2017-11-22T13:14:40.898Z,52.90
2017-11-22T13:17:09.204Z,52.61
2017-11-22T13:19:37.460Z,52.69
2017-11-22T13:22:05.833Z,52.89
2017-11-22T13:24:34.115Z,52.74
2017-11-22T13:27:02.407Z,52.11
2017-11-22T13:29:30.757Z,52.54
2017-11-22T13:31:59.091Z,51.96
2017-11-22T13:34:27.416Z,52.18
2017-11-22T13:36:55.797Z,51.37
2017-11-22T13:39:24.109Z,51.69
2017-11-22T13:41:55.325Z,52.26
2017-11-22T13:44:23.726Z,51.89
2017-11-22T13:46:52.090Z,52.52
2017-11-22T13:49:22.765Z,52.69
2017-11-22T13:51:51.064Z,53.23
2017-11-22T13:54:19.400Z,53.32
2017-11-22T13:56:47.733Z,53.61
2017-11-22T13:59:16.017Z,53.76
2017-11-22T14:01:44.317Z,54.00
2017-11-22T14:04:12.693Z,54.16
2017-11-22T14:06:41.039Z,54.48
2017-11-22T14:09:09.404Z,54.73
2017-11-22T14:11:37.716Z,54.88
2017-11-22T14:14:06.006Z,54.77
2017-11-22T14:16:34.276Z,54.58
2017-11-22T14:19:02.571Z,54.68
2017-11-22T14:21:30.851Z,54.62
2017-11-22T14:23:59.918Z,54.32
2017-11-22T14:26:28.235Z,54.73
2017-11-22T14:28:56.544Z,54.79
2017-11-22T14:31:24.903Z,55.05
2017-11-22T14:33:53.325Z,55.07
2017-11-22T14:36:21.682Z,55.13
2017-11-22T14:38:49.954Z,55.63
2017-11-22T14:41:18.300Z,55.60
2017-11-22T14:43:46.598Z,55.60
2017-11-22T14:46:14.950Z,55.95
2017-11-22T14:48:43.352Z,56.21
2017-11-22T14:51:11.679Z,56.30
2017-11-22T14:53:39.980Z,56.50
2017-11-22T14:56:08.381Z,56.45
2017-11-22T14:58:36.804Z,56.76
2017-11-22T15:01:05.116Z,56.59
2017-11-22T15:03:33.533Z,56.77
2017-11-22T15:06:01.813Z,56.80
2017-11-22T15:08:30.181Z,57.10
2017-11-22T15:10:58.483Z,57.17
2017-11-22T15:13:27.311Z,57.24
2017-11-22T15:15:55.655Z,57.34
2017-11-22T15:18:24.397Z,57.49
2017-11-22T15:20:52.705Z,57.58
2017-11-22T15:23:21.769Z,57.78
2017-11-22T15:25:50.161Z,58.25
2017-11-22T15:28:18.404Z,58.27
2017-11-22T15:30:46.728Z,58.53
2017-11-22T15:33:15.058Z,58.90
2017-11-22T15:35:43.321Z,59.53
2017-11-22T15:38:11.646Z,59.83
2017-11-22T15:40:39.910Z,60.12
2017-11-22T15:43:08.236Z,60.65
2017-11-22T15:45:36.519Z,61.12
2017-11-22T15:48:05.081Z,61.76
2017-11-22T15:50:33.407Z,61.89
2017-11-22T15:53:01.778Z,62.19
2017-11-22T15:55:30.060Z,62.65
2017-11-22T15:57:58.855Z,62.94
2017-11-22T16:00:27.737Z,63.02
2017-11-22T16:02:56.001Z,63.00
2017-11-22T16:05:24.256Z,63.13
2017-11-22T16:07:52.578Z,63.69
2017-11-22T16:10:20.840Z,64.02
2017-11-22T16:12:49.212Z,64.28
2017-11-22T16:15:17.483Z,64.59
2017-11-22T16:17:45.765Z,64.92
2017-11-22T16:20:14.073Z,65.40
2017-11-22T16:22:42.340Z,65.58
2017-11-22T16:25:10.746Z,66.18
2017-11-22T16:27:38.994Z,66.05
2017-11-22T16:30:07.278Z,66.51
2017-11-22T16:32:35.577Z,66.86
2017-11-22T16:35:05.433Z,67.24
2017-11-22T16:37:33.777Z,67.52
2017-11-22T16:40:02.108Z,76.69
2017-11-22T16:42:30.425Z,70.25
2017-11-22T16:44:58.692Z,64.73
2017-11-22T16:47:27.007Z,60.82
2017-11-22T16:49:55.301Z,58.71
2017-11-22T16:52:23.607Z,61.74
2017-11-22T16:54:51.899Z,63.70
2017-11-22T16:57:20.168Z,66.27
2017-11-22T16:59:48.482Z,66.93
2017-11-22T17:02:16.787Z,67.82
2017-11-22T17:04:45.054Z,68.05
2017-11-22T17:07:13.682Z,68.40
2017-11-22T17:09:42.014Z,69.00
2017-11-22T17:12:10.303Z,69.44
2017-11-22T17:14:38.615Z,69.95
2017-11-22T17:17:06.924Z,70.23
2017-11-22T17:19:35.302Z,70.17
2017-11-22T17:22:03.584Z,70.18
2017-11-22T17:24:31.840Z,70.73
2017-11-22T17:27:00.160Z,71.09
2017-11-22T17:29:28.468Z,71.19
2017-11-22T17:31:56.756Z,71.04
2017-11-22T17:34:25.034Z,70.88
2017-11-22T17:36:53.347Z,70.32
2017-11-22T17:39:21.675Z,70.42
2017-11-22T17:41:49.990Z,70.60
2017-11-22T17:44:18.330Z,70.63
2017-11-22T17:46:46.604Z,70.74
2017-11-22T17:49:14.915Z,70.87
2017-11-22T17:51:43.228Z,70.98
2017-11-22T17:54:11.525Z,71.06
2017-11-22T17:56:39.801Z,71.08
2017-11-22T17:59:08.137Z,71.14
2017-11-22T18:01:36.441Z,71.55
2017-11-22T18:04:04.897Z,71.57
2017-11-22T18:06:33.507Z,71.57
2017-11-22T18:09:01.874Z,71.54
2017-11-22T18:11:30.211Z,71.58
2017-11-22T18:13:58.463Z,71.96
2017-11-22T18:16:26.898Z,71.90
2017-11-22T18:18:55.147Z,71.72
2017-11-22T18:21:23.486Z,71.78
2017-11-22T18:23:51.773Z,71.95
2017-11-22T18:26:20.110Z,72.00
2017-11-22T18:28:48.372Z,72.03
2017-11-22T18:31:16.698Z,71.96
2017-11-22T18:33:45.026Z,72.05
2017-11-22T18:36:14.302Z,72.01
2017-11-22T18:38:42.611Z,71.99
2017-11-22T18:41:10.884Z,72.32
2017-11-22T18:43:39.163Z,72.17
2017-11-22T18:46:07.425Z,71.92
2017-11-22T18:48:35.719Z,71.95
2017-11-22T18:51:03.999Z,72.23
2017-11-22T18:53:32.285Z,72.24
2017-11-22T18:56:00.585Z,72.39
2017-11-22T18:58:28.848Z,72.42
2017-11-22T19:00:57.869Z,72.01
2017-11-22T19:03:26.101Z,71.97
2017-11-22T19:05:54.394Z,72.13
2017-11-22T19:08:22.889Z,71.98
2017-11-22T19:10:51.196Z,71.96
2017-11-22T19:13:19.467Z,72.26
2017-11-22T19:15:47.746Z,72.58
2017-11-22T19:18:16.025Z,72.59
2017-11-22T19:20:44.624Z,72.70
2017-11-22T19:23:12.873Z,72.61
2017-11-22T19:25:41.140Z,72.61
2017-11-22T19:28:09.497Z,72.39
2017-11-22T19:30:37.799Z,72.38
2017-11-22T19:33:06.107Z,72.47
2017-11-22T19:35:34.360Z,72.77
2017-11-22T19:38:02.685Z,72.24
2017-11-22T19:40:30.969Z,72.47
2017-11-22T19:42:59.525Z,72.67
2017-11-22T19:45:27.868Z,72.65
2017-11-22T19:47:56.369Z,72.30
2017-11-22T19:50:24.622Z,72.20
2017-11-22T19:52:52.908Z,72.31
2017-11-22T19:55:21.220Z,72.38
2017-11-22T19:57:49.531Z,72.12
2017-11-22T20:00:17.822Z,72.04
2017-11-22T20:02:46.093Z,71.81
2017-11-22T20:05:14.411Z,72.08
2017-11-22T20:07:46.762Z,72.66
2017-11-22T20:10:15.094Z,72.80
2017-11-22T20:12:43.370Z,72.84
2017-11-22T20:15:11.727Z,72.42
2017-11-22T20:17:39.982Z,72.33
2017-11-22T20:20:08.265Z,72.40
2017-11-22T20:22:36.573Z,72.36
2017-11-22T20:25:04.871Z,72.39
2017-11-22T20:27:33.176Z,72.78
2017-11-22T20:30:01.555Z,73.79
2017-11-22T20:32:29.875Z,74.26
2017-11-22T20:34:58.150Z,74.07
2017-11-22T20:37:26.775Z,73.55
2017-11-22T20:39:55.034Z,73.70
2017-11-22T20:42:23.357Z,73.54
2017-11-22T20:44:51.616Z,73.41
2017-11-22T20:47:19.911Z,73.48
2017-11-22T20:49:48.210Z,73.31
2017-11-22T20:52:16.465Z,73.57
2017-11-22T20:54:44.755Z,73.79
2017-11-22T20:57:13.268Z,73.92
2017-11-22T20:59:41.565Z,73.68
2017-11-22T21:02:09.877Z,73.31
2017-11-22T21:04:38.188Z,73.24
2017-11-22T21:07:06.473Z,72.73
2017-11-22T21:09:36.463Z,72.40
2017-11-22T21:12:04.943Z,72.05
2017-11-22T21:14:33.281Z,71.47
2017-11-22T21:17:01.549Z,71.47
2017-11-22T21:19:29.821Z,71.23
2017-11-22T21:21:58.101Z,71.37
2017-11-22T21:24:26.482Z,71.17
2017-11-22T21:26:55.056Z,71.13
2017-11-22T21:29:23.274Z,71.38
2017-11-22T21:31:51.617Z,71.81
2017-11-22T21:34:19.891Z,72.32
2017-11-22T21:36:48.275Z,72.34
2017-11-22T21:39:16.549Z,71.78
2017-11-22T21:41:44.829Z,71.12
2017-11-22T21:44:13.101Z,71.04
2017-11-22T21:46:41.388Z,70.49
2017-11-22T21:49:09.747Z,70.26
2017-11-22T21:51:38.037Z,69.91
2017-11-22T21:54:06.325Z,69.37
2017-11-22T21:56:34.630Z,69.37
2017-11-22T21:59:02.871Z,69.29
2017-11-22T22:01:31.145Z,69.21
2017-11-22T22:03:59.429Z,69.24
2017-11-22T22:06:27.684Z,69.30
2017-11-22T22:08:55.997Z,69.16
2017-11-22T22:11:24.332Z,69.07
2017-11-22T22:13:52.581Z,68.84
2017-11-22T22:16:20.885Z,68.71
2017-11-22T22:18:49.145Z,68.51
2017-11-22T22:21:17.398Z,68.64
2017-11-22T22:23:45.678Z,68.76
2017-11-22T22:26:13.956Z,69.02
2017-11-22T22:28:42.237Z,69.13
2017-11-22T22:31:10.543Z,69.02
2017-11-22T22:33:38.806Z,69.01
2017-11-22T22:36:07.094Z,69.28
2017-11-22T22:38:35.353Z,69.33
2017-11-22T22:41:03.677Z,69.33
2017-11-22T22:43:31.955Z,69.55
2017-11-22T22:46:00.257Z,69.81
2017-11-22T22:48:29.012Z,70.14
2017-11-22T22:50:57.308Z,70.27
2017-11-22T22:53:25.649Z,70.32
2017-11-22T22:55:53.918Z,70.72
2017-11-22T22:58:22.186Z,71.02
2017-11-22T23:00:50.496Z,70.91
2017-11-22T23:03:19.200Z,70.91
2017-11-22T23:05:47.464Z,71.04
2017-11-22T23:08:15.784Z,71.32
2017-11-22T23:10:44.087Z,71.45
2017-11-22T23:13:12.365Z,71.43
2017-11-22T23:15:40.642Z,71.22
2017-11-22T23:18:08.933Z,71.34
2017-11-22T23:20:37.197Z,71.26
2017-11-22T23:23:05.601Z,71.77
2017-11-22T23:25:33.853Z,72.10
2017-11-22T23:28:02.126Z,72.25
2017-11-22T23:30:30.408Z,72.25
2017-11-22T23:32:58.691Z,72.31
2017-11-22T23:35:26.991Z,72.17
2017-11-22T23:37:55.257Z,72.10
2017-11-22T23:40:23.550Z,72.07
2017-11-22T23:42:51.830Z,72.08
2017-11-22T23:45:20.137Z,72.28
2017-11-22T23:47:48.391Z,72.12
2017-11-22T23:50:17.332Z,71.63
2017-11-22T23:52:45.626Z,71.82
2017-11-22T23:55:13.904Z,71.70
2017-11-22T23:57:42.513Z,71.57
